X  Schlie├čen METAR Luftfahrt Wetterdaten     EDVE Braunschweig-Wolfsburg Airport
Temperatur
43°F Temperatur
41°F Taupunkt
93% Feuchtigkeit



Wind
6 MPS
10 KM/S
3 M/S
5 KTS



150°
SSO
Aktuelle Wetterlage

Klar Klar
Luftdruck 1025.92 (hPa) - 30.3 (inHg)
Sichtweite 6.2 (Meile) - 10 (Km)
Flughafen
Flughafen Code EDVE

Position : Braunschweig-Wolfsburg Airport
Entfernung: 35 (mi)

Metar:
EDVE 070520Z 15005KT CAVOK 06/05 Q1026

Zeit: 07-10-2022 07:20 CEST